createdAt,value
2018-07-09T00:01:13.573Z,45.60
2018-07-09T00:03:41.863Z,45.60
2018-07-09T00:06:10.162Z,45.60
2018-07-09T00:08:38.368Z,46.30
2018-07-09T00:11:08.420Z,45.60
2018-07-09T00:13:37.726Z,45.70
2018-07-09T00:16:05.990Z,45.80
2018-07-09T00:18:34.216Z,45.80
2018-07-09T00:21:02.467Z,45.70
2018-07-09T00:23:30.796Z,45.80
2018-07-09T00:25:59.049Z,45.80
2018-07-09T00:28:27.500Z,45.80
2018-07-09T00:30:55.744Z,45.90
2018-07-09T00:33:24.083Z,46.00
2018-07-09T00:35:52.378Z,46.00
2018-07-09T00:38:21.053Z,46.00
2018-07-09T00:40:49.943Z,46.00
2018-07-09T00:43:18.202Z,46.10
2018-07-09T00:45:46.769Z,46.10
2018-07-09T00:48:15.066Z,46.20
2018-07-09T00:50:43.363Z,46.20
2018-07-09T00:53:11.633Z,46.20
2018-07-09T00:55:39.908Z,46.20
2018-07-09T00:58:08.198Z,46.30
2018-07-09T01:00:36.519Z,46.30
2018-07-09T01:03:04.869Z,46.30
2018-07-09T01:05:33.185Z,46.30
2018-07-09T01:08:01.534Z,46.40
2018-07-09T01:10:29.809Z,46.40
2018-07-09T01:12:58.103Z,47.00
2018-07-09T01:15:26.425Z,46.40
2018-07-09T01:17:54.694Z,46.50
2018-07-09T01:20:23.070Z,46.40
2018-07-09T01:22:51.278Z,46.50
2018-07-09T01:25:19.565Z,46.50
2018-07-09T01:27:47.837Z,46.60
2018-07-09T01:30:16.694Z,46.60
2018-07-09T01:32:44.982Z,46.60
2018-07-09T01:35:14.003Z,46.60
2018-07-09T01:37:42.769Z,46.70
2018-07-09T01:40:11.379Z,46.70
2018-07-09T01:42:39.655Z,46.80
2018-07-09T01:45:07.954Z,46.80
2018-07-09T01:47:36.226Z,46.80
2018-07-09T01:50:04.523Z,46.80
2018-07-09T01:52:32.794Z,46.90
2018-07-09T01:55:01.575Z,46.90
2018-07-09T01:57:29.913Z,47.00
2018-07-09T01:59:58.155Z,47.00
2018-07-09T02:02:26.435Z,47.00
2018-07-09T02:04:54.753Z,47.10
2018-07-09T02:07:23.007Z,47.00
2018-07-09T02:09:51.572Z,47.10
2018-07-09T02:12:19.866Z,47.70
2018-07-09T02:14:48.146Z,47.10
2018-07-09T02:17:16.430Z,47.10
2018-07-09T02:19:44.749Z,47.10
2018-07-09T02:22:13.050Z,47.30
2018-07-09T02:24:41.335Z,47.20
2018-07-09T02:29:37.617Z,47.30
2018-07-09T02:32:05.958Z,47.20
2018-07-09T02:34:35.138Z,47.30
2018-07-09T02:37:03.447Z,47.30
2018-07-09T02:39:31.727Z,47.30
2018-07-09T02:41:59.995Z,47.40
2018-07-09T02:44:28.298Z,47.50
2018-07-09T02:49:24.951Z,47.50
2018-07-09T02:51:53.570Z,47.50
2018-07-09T02:54:22.088Z,47.60
2018-07-09T02:56:50.451Z,47.60
2018-07-09T02:59:18.786Z,47.60
2018-07-09T03:01:47.115Z,47.60
2018-07-09T03:04:15.477Z,47.70
2018-07-09T03:06:43.757Z,47.70
2018-07-09T03:09:12.050Z,47.70
2018-07-09T03:11:40.330Z,47.70
2018-07-09T03:14:08.615Z,47.80
2018-07-09T03:16:37.118Z,47.80
2018-07-09T03:19:05.677Z,47.80
2018-07-09T03:21:34.000Z,47.90
2018-07-09T03:24:02.186Z,47.90
2018-07-09T03:26:30.465Z,47.80
2018-07-09T03:28:58.727Z,47.90
2018-07-09T03:31:26.974Z,48.00
2018-07-09T03:33:55.261Z,48.00
2018-07-09T03:36:23.517Z,47.90
2018-07-09T03:38:51.767Z,47.90
2018-07-09T03:41:20.075Z,48.00
2018-07-09T03:43:48.554Z,48.10
2018-07-09T03:46:16.829Z,48.10
2018-07-09T03:48:45.095Z,48.20
2018-07-09T03:51:13.643Z,48.10
2018-07-09T03:53:41.943Z,48.10
2018-07-09T03:56:10.213Z,48.70
2018-07-09T03:58:38.530Z,48.20
2018-07-09T04:01:06.814Z,48.20
2018-07-09T04:03:35.086Z,48.20
2018-07-09T04:06:03.357Z,48.20
2018-07-09T04:08:31.630Z,48.20
2018-07-09T04:10:59.907Z,48.20
2018-07-09T04:13:28.726Z,48.20
2018-07-09T04:15:56.997Z,48.30
2018-07-09T04:18:25.785Z,48.30
2018-07-09T04:20:55.845Z,48.30
2018-07-09T04:23:24.111Z,48.40
2018-07-09T04:25:52.681Z,48.30
2018-07-09T04:28:21.367Z,48.40
2018-07-09T04:30:49.953Z,48.40
2018-07-09T04:33:18.338Z,48.40
2018-07-09T04:35:46.602Z,48.40
2018-07-09T04:40:43.182Z,48.50
2018-07-09T04:43:11.509Z,48.50
2018-07-09T04:45:39.757Z,48.40
2018-07-09T04:48:08.860Z,48.50
2018-07-09T04:50:37.131Z,48.50
2018-07-09T04:53:05.555Z,48.50
2018-07-09T04:55:33.808Z,48.30
2018-07-09T04:58:02.095Z,48.20
2018-07-09T05:00:30.371Z,48.00
2018-07-09T05:02:58.697Z,47.90
2018-07-09T05:05:26.969Z,48.40
2018-07-09T05:07:55.261Z,47.80
2018-07-09T05:10:23.531Z,47.80
2018-07-09T05:12:52.803Z,47.90
2018-07-09T05:15:21.141Z,47.90
2018-07-09T05:20:17.406Z,48.20
2018-07-09T05:22:45.810Z,48.10
2018-07-09T05:25:14.114Z,48.10
2018-07-09T05:27:42.370Z,48.10
2018-07-09T05:30:10.678Z,48.10
2018-07-09T05:32:38.943Z,48.10
2018-07-09T05:35:07.335Z,48.10
2018-07-09T05:37:36.094Z,48.10
2018-07-09T05:40:04.595Z,48.10
2018-07-09T05:42:32.798Z,48.00
2018-07-09T05:47:29.135Z,48.00
2018-07-09T05:49:57.426Z,48.00
2018-07-09T05:52:25.737Z,47.90
2018-07-09T05:54:54.030Z,47.80
2018-07-09T05:57:22.320Z,47.80
2018-07-09T05:59:50.653Z,47.80
2018-07-09T06:02:19.957Z,47.80
2018-07-09T06:04:48.370Z,47.60
2018-07-09T06:07:16.809Z,48.10
2018-07-09T06:09:45.275Z,48.00
2018-07-09T06:12:13.534Z,47.80
2018-07-09T06:14:42.374Z,48.50
2018-07-09T06:17:12.728Z,48.10
2018-07-09T06:19:41.449Z,48.00
2018-07-09T06:22:09.667Z,47.90
2018-07-09T06:24:38.009Z,47.90
2018-07-09T06:27:07.150Z,47.80
2018-07-09T06:29:35.455Z,47.80
2018-07-09T06:32:03.810Z,48.10
2018-07-09T06:34:32.074Z,48.30
2018-07-09T06:37:00.391Z,48.70
2018-07-09T06:39:28.635Z,48.50
2018-07-09T06:41:56.901Z,48.50
2018-07-09T06:44:25.173Z,48.60
2018-07-09T06:46:53.431Z,48.70
2018-07-09T06:49:21.786Z,48.80
2018-07-09T06:51:50.076Z,48.70
2018-07-09T06:54:18.379Z,48.40
2018-07-09T06:56:46.643Z,48.20
2018-07-09T06:59:14.938Z,48.00
2018-07-09T07:01:43.194Z,48.60
2018-07-09T07:04:11.498Z,48.00
2018-07-09T07:06:39.813Z,48.20
2018-07-09T07:09:08.183Z,48.30
2018-07-09T07:11:36.607Z,48.10
2018-07-09T07:14:04.923Z,48.30
2018-07-09T07:16:33.594Z,48.50
2018-07-09T07:19:02.082Z,48.40
2018-07-09T07:21:30.423Z,48.20
2018-07-09T07:23:58.742Z,49.70
2018-07-09T07:28:55.082Z,50.10
2018-07-09T07:31:23.353Z,49.70
2018-07-09T07:33:53.296Z,49.30
2018-07-09T07:36:21.589Z,49.10
2018-07-09T07:38:49.874Z,50.40
2018-07-09T07:41:18.212Z,50.40
2018-07-09T07:43:46.525Z,50.00
2018-07-09T07:46:14.782Z,49.90
2018-07-09T07:48:43.057Z,50.40
2018-07-09T07:51:11.348Z,50.20
2018-07-09T07:53:39.657Z,49.90
2018-07-09T07:56:07.926Z,50.00
2018-07-09T08:01:04.247Z,49.90
2018-07-09T08:03:32.579Z,50.20
2018-07-09T08:06:00.833Z,49.60
2018-07-09T08:08:29.122Z,49.40
2018-07-09T08:10:57.454Z,49.60
2018-07-09T08:13:28.797Z,49.50
2018-07-09T08:15:55.102Z,49.30
2018-07-09T08:18:23.360Z,50.20
2018-07-09T08:20:51.642Z,49.70
2018-07-09T08:23:19.887Z,50.40
2018-07-09T08:25:48.226Z,49.50
2018-07-09T08:28:16.505Z,49.80
2018-07-09T08:33:12.865Z,49.90
2018-07-09T08:35:41.164Z,51.10
2018-07-09T08:38:09.447Z,50.10
2018-07-09T08:40:44.392Z,49.80
2018-07-09T08:43:12.752Z,49.90
2018-07-09T08:45:41.086Z,49.60
2018-07-09T08:48:09.375Z,49.60
2018-07-09T08:50:37.690Z,50.00
2018-07-09T08:53:06.323Z,49.70
2018-07-09T08:55:35.078Z,49.60
2018-07-09T09:00:31.434Z,50.10
2018-07-09T09:02:59.698Z,50.50
2018-07-09T09:05:28.338Z,49.50
2018-07-09T09:07:56.583Z,50.70
2018-07-09T09:10:24.970Z,49.70
2018-07-09T09:12:53.212Z,49.70
2018-07-09T09:15:21.518Z,49.80
2018-07-09T09:17:50.482Z,49.70
2018-07-09T09:20:18.767Z,49.80
2018-07-09T09:22:47.081Z,49.70
2018-07-09T09:25:15.474Z,50.30
2018-07-09T09:27:43.748Z,49.50
2018-07-09T09:30:12.023Z,49.20
2018-07-09T09:32:40.440Z,49.70
2018-07-09T09:37:36.759Z,49.10
2018-07-09T09:40:05.150Z,49.60
2018-07-09T09:42:33.558Z,49.50
2018-07-09T09:45:01.895Z,49.30
2018-07-09T09:47:30.183Z,49.30
2018-07-09T09:49:58.450Z,49.30
2018-07-09T09:52:26.814Z,49.20
2018-07-09T09:54:55.119Z,49.80
2018-07-09T09:57:23.378Z,49.30
2018-07-09T09:59:51.699Z,49.20
2018-07-09T10:02:19.958Z,49.30
2018-07-09T10:04:48.265Z,49.20
2018-07-09T10:07:16.524Z,49.30
2018-07-09T10:09:44.818Z,49.20
2018-07-09T10:12:13.099Z,49.10
2018-07-09T10:14:41.400Z,48.20
2018-07-09T10:17:09.665Z,48.70
2018-07-09T10:19:37.957Z,49.90
2018-07-09T10:22:06.301Z,49.80
2018-07-09T10:24:34.562Z,48.60
2018-07-09T10:27:02.838Z,48.70
2018-07-09T10:29:31.090Z,49.00
2018-07-09T10:31:59.390Z,48.90
2018-07-09T10:34:27.666Z,49.10
2018-07-09T10:39:23.981Z,47.60
2018-07-09T10:41:52.267Z,48.50
2018-07-09T10:44:20.553Z,48.80
2018-07-09T10:46:48.825Z,48.70
2018-07-09T10:49:17.102Z,48.90
2018-07-09T10:51:45.392Z,48.70
2018-07-09T10:54:13.710Z,48.60
2018-07-09T10:56:42.003Z,47.90
2018-07-09T10:59:10.270Z,48.50
2018-07-09T11:01:38.574Z,48.40
2018-07-09T11:04:06.914Z,48.40
2018-07-09T11:06:35.179Z,48.40
2018-07-09T11:09:04.241Z,48.00
2018-07-09T11:11:32.507Z,48.00
2018-07-09T11:14:00.794Z,47.40
2018-07-09T11:16:29.065Z,47.50
2018-07-09T11:18:57.362Z,47.50
2018-07-09T11:21:25.662Z,48.30
2018-07-09T11:23:53.942Z,46.50
2018-07-09T11:26:22.312Z,47.10
2018-07-09T11:28:50.733Z,47.00
2018-07-09T11:31:19.067Z,47.30
2018-07-09T11:33:47.358Z,47.30
2018-07-09T11:36:15.617Z,46.20
2018-07-09T11:38:43.896Z,47.40
2018-07-09T11:41:12.159Z,46.50
2018-07-09T11:43:40.438Z,46.90
2018-07-09T11:46:08.739Z,47.50
2018-07-09T11:48:37.005Z,46.90
2018-07-09T11:51:05.266Z,47.60
2018-07-09T11:53:34.158Z,47.20
2018-07-09T11:56:02.458Z,47.20
2018-07-09T11:58:30.771Z,47.70
2018-07-09T12:00:59.053Z,47.30
2018-07-09T12:03:27.349Z,47.10
2018-07-09T12:05:55.683Z,46.40
2018-07-09T12:08:23.978Z,45.90
2018-07-09T12:10:52.253Z,46.30
2018-07-09T12:13:20.526Z,47.00
2018-07-09T12:15:49.189Z,47.40
2018-07-09T12:18:17.450Z,47.60
2018-07-09T12:20:45.761Z,44.90
2018-07-09T12:23:14.093Z,44.40
2018-07-09T12:25:42.404Z,46.20
2018-07-09T12:28:10.799Z,45.30
2018-07-09T12:30:39.121Z,47.30
2018-07-09T12:33:07.394Z,46.60
2018-07-09T12:35:35.666Z,46.30
2018-07-09T12:38:03.975Z,47.10
2018-07-09T12:40:32.270Z,47.60
2018-07-09T12:45:28.619Z,44.50
2018-07-09T12:47:56.891Z,45.00
2018-07-09T12:52:53.213Z,44.10
2018-07-09T12:55:21.513Z,44.40
2018-07-09T12:57:49.778Z,45.50
2018-07-09T13:00:18.083Z,46.40
2018-07-09T13:02:46.370Z,45.60
2018-07-09T13:07:36.127Z,44.40
2018-07-09T13:12:32.761Z,45.10
2018-07-09T13:15:01.338Z,45.50
2018-07-09T13:17:29.731Z,45.00
2018-07-09T13:19:58.081Z,43.30
2018-07-09T13:22:26.370Z,43.70
2018-07-09T13:24:54.670Z,45.90
2018-07-09T13:27:23.042Z,44.40
2018-07-09T13:29:51.342Z,43.80
2018-07-09T13:32:19.646Z,44.30
2018-07-09T13:34:47.974Z,42.70
2018-07-09T13:37:16.241Z,41.80
2018-07-09T13:39:44.622Z,41.80
2018-07-09T13:42:12.906Z,44.10
2018-07-09T13:44:41.202Z,44.20
2018-07-09T13:47:09.490Z,42.80
2018-07-09T13:49:37.946Z,43.20
2018-07-09T13:52:06.204Z,44.50
2018-07-09T13:54:34.634Z,44.10
2018-07-09T13:57:03.186Z,44.50
2018-07-09T13:59:31.476Z,43.60
2018-07-09T14:01:59.790Z,43.80
2018-07-09T14:04:28.079Z,43.40
2018-07-09T14:06:56.580Z,44.20
2018-07-09T14:09:24.859Z,45.00
2018-07-09T14:11:53.355Z,41.30
2018-07-09T14:14:21.623Z,43.30
2018-07-09T14:16:49.938Z,38.70
2018-07-09T14:19:29.662Z,40.00
2018-07-09T14:21:57.983Z,39.90
2018-07-09T14:24:26.254Z,40.20
2018-07-09T14:26:54.666Z,40.90
2018-07-09T14:29:22.970Z,36.80
2018-07-09T14:31:51.239Z,36.70
2018-07-09T14:34:19.514Z,38.00
2018-07-09T14:36:47.824Z,38.40
2018-07-09T14:39:16.099Z,39.80
2018-07-09T14:41:44.354Z,39.30
2018-07-09T14:44:12.657Z,38.90
2018-07-09T14:46:40.962Z,40.20
2018-07-09T14:49:09.269Z,39.40
2018-07-09T14:51:37.574Z,38.30
2018-07-09T14:54:05.847Z,39.20
2018-07-09T14:56:34.199Z,40.00
2018-07-09T14:59:02.510Z,39.50
2018-07-09T15:01:30.860Z,40.00
2018-07-09T15:03:59.142Z,38.20
2018-07-09T15:06:27.418Z,40.30
2018-07-09T15:08:55.697Z,40.10
2018-07-09T15:11:24.200Z,41.40
2018-07-09T15:13:52.494Z,38.90
2018-07-09T15:16:20.751Z,40.80
2018-07-09T15:18:49.095Z,38.70
2018-07-09T15:21:17.443Z,39.80
2018-07-09T15:23:45.697Z,41.20
2018-07-09T15:26:13.961Z,39.10
2018-07-09T15:28:42.238Z,38.90
2018-07-09T15:31:10.496Z,39.60
2018-07-09T15:33:38.819Z,39.20
2018-07-09T15:36:08.674Z,40.70
2018-07-09T15:38:38.296Z,40.70
2018-07-09T15:41:07.724Z,41.80
2018-07-09T15:43:47.282Z,40.00
2018-07-09T15:46:15.561Z,40.80
2018-07-09T15:48:43.822Z,41.00
2018-07-09T15:51:12.685Z,38.50
2018-07-09T15:53:40.945Z,41.90
2018-07-09T15:56:09.261Z,41.50
2018-07-09T15:58:37.634Z,41.70
2018-07-09T16:01:05.934Z,39.40
2018-07-09T16:03:34.223Z,40.40
2018-07-09T16:06:02.491Z,40.90
2018-07-09T16:08:30.813Z,39.40
2018-07-09T16:10:59.080Z,40.40
2018-07-09T16:13:27.375Z,40.90
2018-07-09T16:18:23.763Z,40.00
2018-07-09T16:20:52.036Z,40.80
2018-07-09T16:23:20.598Z,40.90
2018-07-09T16:25:49.217Z,41.10
2018-07-09T16:28:17.601Z,40.70
2018-07-09T16:30:45.910Z,41.10
2018-07-09T16:33:14.194Z,39.80
2018-07-09T16:35:42.719Z,39.00
2018-07-09T16:38:11.082Z,41.00
2018-07-09T16:40:39.562Z,41.30
2018-07-09T16:43:07.912Z,39.80
2018-07-09T16:45:36.232Z,39.80
2018-07-09T16:48:04.518Z,40.30
2018-07-09T16:50:32.820Z,38.60
2018-07-09T16:53:01.303Z,41.10
2018-07-09T16:55:31.121Z,37.80
2018-07-09T16:57:59.434Z,41.50
2018-07-09T17:00:27.742Z,39.10
2018-07-09T17:02:56.060Z,39.00
2018-07-09T17:05:24.390Z,40.50
2018-07-09T17:07:52.660Z,40.60
2018-07-09T17:10:20.952Z,41.30
2018-07-09T17:12:49.218Z,40.10
2018-07-09T17:15:17.704Z,41.10
2018-07-09T17:17:45.975Z,41.60
2018-07-09T17:20:14.258Z,39.20
2018-07-09T17:22:42.525Z,40.20
2018-07-09T17:27:38.786Z,40.70
2018-07-09T17:30:07.061Z,41.20
2018-07-09T17:32:35.399Z,41.00
2018-07-09T17:35:03.662Z,41.50
2018-07-09T17:37:32.155Z,41.60
2018-07-09T17:40:00.584Z,40.50
2018-07-09T17:42:28.913Z,40.80
2018-07-09T17:44:57.271Z,39.10
2018-07-09T17:47:25.654Z,40.10
2018-07-09T17:49:54.097Z,39.20
2018-07-09T17:52:22.566Z,39.30
2018-07-09T17:54:50.992Z,41.40
2018-07-09T17:57:19.541Z,38.90
2018-07-09T17:59:47.810Z,39.30
2018-07-09T18:02:16.177Z,40.60
2018-07-09T18:04:44.558Z,40.80
2018-07-09T18:07:13.010Z,38.80
2018-07-09T18:09:41.319Z,41.20
2018-07-09T18:12:09.927Z,41.10
2018-07-09T18:14:38.523Z,41.90
2018-07-09T18:17:06.892Z,42.20
2018-07-09T18:19:35.321Z,41.00
2018-07-09T18:22:03.628Z,39.40
2018-07-09T18:24:31.976Z,42.00
2018-07-09T18:27:00.331Z,41.50
2018-07-09T18:29:28.565Z,41.20
2018-07-09T18:31:56.918Z,40.50
2018-07-09T18:34:25.354Z,39.30
2018-07-09T18:36:54.062Z,39.80
2018-07-09T18:39:23.496Z,42.10
2018-07-09T18:41:51.982Z,42.20
2018-07-09T18:44:20.422Z,42.20
2018-07-09T18:46:48.719Z,38.70
2018-07-09T18:49:17.050Z,39.90
2018-07-09T18:51:45.322Z,41.20
2018-07-09T18:54:13.638Z,41.90
2018-07-09T18:56:41.948Z,42.80
2018-07-09T18:59:10.230Z,41.40
2018-07-09T19:01:38.602Z,42.40
2018-07-09T19:04:06.910Z,42.50
2018-07-09T19:07:08.450Z,43.40
2018-07-09T19:09:37.231Z,41.50
2018-07-09T19:12:06.749Z,43.30
2018-07-09T19:14:38.804Z,42.90
2018-07-09T19:18:23.543Z,43.40
2018-07-09T19:21:31.466Z,43.70
2018-07-09T19:23:59.131Z,43.90
2018-07-09T19:26:26.329Z,42.70
2018-07-09T19:28:53.584Z,43.50
2018-07-09T19:31:20.802Z,44.10
2018-07-09T19:33:48.038Z,44.10
2018-07-09T19:36:15.243Z,44.00
2018-07-09T19:38:42.480Z,43.10
2018-07-09T19:41:09.894Z,43.80
2018-07-09T19:43:37.457Z,42.30
2018-07-09T19:46:05.340Z,44.30
2018-07-09T19:48:32.661Z,44.50
2018-07-09T19:51:00.441Z,44.30
2018-07-09T19:53:27.673Z,44.10
2018-07-09T19:55:54.943Z,44.20
2018-07-09T19:58:22.150Z,43.80
2018-07-09T20:00:49.410Z,43.30
2018-07-09T20:03:17.089Z,43.10
2018-07-09T20:05:44.365Z,44.10
2018-07-09T20:08:11.612Z,43.60
2018-07-09T20:10:44.290Z,43.10
2018-07-09T20:13:16.855Z,44.40
2018-07-09T20:15:49.448Z,43.50
2018-07-09T20:18:16.690Z,44.10
2018-07-09T20:20:44.000Z,42.60
2018-07-09T20:23:11.192Z,44.20
2018-07-09T20:25:38.518Z,40.80
2018-07-09T20:28:05.787Z,43.70
2018-07-09T20:30:33.021Z,41.50
2018-07-09T20:33:00.406Z,43.90
2018-07-09T20:35:27.842Z,44.20
2018-07-09T20:37:55.100Z,44.20
2018-07-09T20:40:22.342Z,42.60
2018-07-09T20:42:49.550Z,44.60
2018-07-09T20:45:16.782Z,44.30
2018-07-09T20:47:44.014Z,43.60
2018-07-09T20:50:11.278Z,44.70
2018-07-09T20:52:38.513Z,44.80
2018-07-09T20:55:05.982Z,45.00
2018-07-09T20:57:33.317Z,45.20
2018-07-09T21:00:00.726Z,45.20
2018-07-09T21:02:28.024Z,45.30
2018-07-09T21:04:55.350Z,45.30
2018-07-09T21:07:22.638Z,44.80
2018-07-09T21:09:49.970Z,45.60
2018-07-09T21:12:17.465Z,45.30
2018-07-09T21:14:44.690Z,45.20
2018-07-09T21:17:11.947Z,44.60
2018-07-09T21:19:39.160Z,45.30
2018-07-09T21:22:06.472Z,45.40
2018-07-09T21:24:33.611Z,46.00
2018-07-09T21:27:00.866Z,45.40
2018-07-09T21:29:28.149Z,45.50
2018-07-09T21:31:55.355Z,45.40
2018-07-09T21:34:22.672Z,45.40
2018-07-09T21:39:17.595Z,45.40
2018-07-09T21:41:44.905Z,45.40
2018-07-09T21:44:12.532Z,45.30
2018-07-09T21:46:39.770Z,45.30
2018-07-09T21:49:07.019Z,45.40
2018-07-09T21:51:34.266Z,45.40
2018-07-09T21:54:02.258Z,45.50
2018-07-09T21:56:29.544Z,45.50
2018-07-09T21:58:56.907Z,45.60
2018-07-09T22:01:24.118Z,45.70
2018-07-09T22:03:51.355Z,45.70
2018-07-09T22:06:18.565Z,45.80
2018-07-09T22:08:45.815Z,45.90
2018-07-09T22:11:13.030Z,46.00
2018-07-09T22:13:40.277Z,46.00
2018-07-09T22:16:07.501Z,46.00
2018-07-09T22:18:34.748Z,46.00
2018-07-09T22:21:01.996Z,45.90
2018-07-09T22:23:29.245Z,45.90
2018-07-09T22:25:56.463Z,46.00
2018-07-09T22:28:23.696Z,46.00
2018-07-09T22:30:51.994Z,46.00
2018-07-09T22:33:20.276Z,46.00
2018-07-09T22:35:48.514Z,46.00
2018-07-09T22:38:16.822Z,46.00
2018-07-09T22:40:45.146Z,46.00
2018-07-09T22:43:24.594Z,46.10
2018-07-09T22:45:52.878Z,46.10
2018-07-09T22:48:21.140Z,46.20
2018-07-09T22:50:49.450Z,46.20
2018-07-09T22:53:17.694Z,46.10
2018-07-09T22:55:57.390Z,46.10
2018-07-09T22:58:25.673Z,45.80
2018-07-09T23:00:53.991Z,45.50
2018-07-09T23:03:22.254Z,45.90
2018-07-09T23:05:50.571Z,45.00
2018-07-09T23:08:18.865Z,46.20
2018-07-09T23:13:18.679Z,46.40
2018-07-09T23:15:58.186Z,45.80
2018-07-09T23:18:37.815Z,46.40
2018-07-09T23:21:17.451Z,46.40
2018-07-09T23:23:44.686Z,46.40
2018-07-09T23:26:11.905Z,46.10
2018-07-09T23:28:39.114Z,46.50
2018-07-09T23:31:06.352Z,46.20
2018-07-09T23:33:33.598Z,46.60
2018-07-09T23:36:00.829Z,46.40
2018-07-09T23:38:28.054Z,46.60
2018-07-09T23:40:55.286Z,46.60
2018-07-09T23:43:22.536Z,46.60
2018-07-09T23:45:50.334Z,46.40
2018-07-09T23:48:17.567Z,46.80
2018-07-09T23:50:44.881Z,46.70
2018-07-09T23:53:12.113Z,46.20
2018-07-09T23:55:40.374Z,46.80
2018-07-09T23:59:22.745Z,46.90
